sensor_id;sensor_type;location;lat;lon;timestamp;pressure;altitude;pressure_sealevel;temperature
26158;BMP280;67284;44.782;10.282;2023-02-26T00:03:21;99092.16;;;11.72
26158;BMP280;67284;44.782;10.282;2023-02-26T00:08:13;99096.63;;;11.68
26158;BMP280;67284;44.782;10.282;2023-02-26T00:13:05;99081.16;;;11.68
26158;BMP280;67284;44.782;10.282;2023-02-26T00:22:52;99067.34;;;11.69
26158;BMP280;67284;44.782;10.282;2023-02-26T00:27:44;99087.97;;;11.69
26158;BMP280;67284;44.782;10.282;2023-02-26T00:32:37;99079.47;;;11.67
26158;BMP280;67284;44.782;10.282;2023-02-26T00:42:59;99082.00;;;11.69
26158;BMP280;67284;44.782;10.282;2023-02-26T00:48:09;99079.47;;;11.67
26158;BMP280;67284;44.782;10.282;2023-02-26T00:53:11;99079.47;;;11.67
26158;BMP280;67284;44.782;10.282;2023-02-26T00:58:05;99072.50;;;11.69
26158;BMP280;67284;44.782;10.282;2023-02-26T01:02:58;99082.06;;;11.67
26158;BMP280;67284;44.782;10.282;2023-02-26T01:08:23;99076.00;;;11.68
26158;BMP280;67284;44.782;10.282;2023-02-26T01:13:18;99070.84;;;11.68
26158;BMP280;67284;44.782;10.282;2023-02-26T01:18:18;99063.06;;;11.70
26158;BMP280;67284;44.782;10.282;2023-02-26T01:23:15;99056.09;;;11.72
26158;BMP280;67284;44.782;10.282;2023-02-26T01:28:09;99053.59;;;11.70
26158;BMP280;67284;44.782;10.282;2023-02-26T01:38:42;99044.09;;;11.72
26158;BMP280;67284;44.782;10.282;2023-02-26T01:48:55;99035.75;;;11.66
26158;BMP280;67284;44.782;10.282;2023-02-26T01:53:48;99030.66;;;11.64
26158;BMP280;67284;44.782;10.282;2023-02-26T01:58:40;99028.09;;;11.64
26158;BMP280;67284;44.782;10.282;2023-02-26T02:03:34;99021.25;;;11.63
26158;BMP280;67284;44.782;10.282;2023-02-26T02:08:29;99024.69;;;11.64
26158;BMP280;67284;44.782;10.282;2023-02-26T02:28:44;99027.28;;;11.62
26158;BMP280;67284;44.782;10.282;2023-02-26T02:33:57;99036.69;;;11.63
26158;BMP280;67284;44.782;10.282;2023-02-26T02:39:04;99023.81;;;11.63
26158;BMP280;67284;44.782;10.282;2023-02-26T02:44:03;99036.69;;;11.63
26158;BMP280;67284;44.782;10.282;2023-02-26T02:49:06;99028.22;;;11.61
26158;BMP280;67284;44.782;10.282;2023-02-26T02:54:19;99027.19;;;11.65
26158;BMP280;67284;44.782;10.282;2023-02-26T03:04:07;99031.41;;;11.66
26158;BMP280;67284;44.782;10.282;2023-02-26T03:09:01;99035.69;;;11.67
26158;BMP280;67284;44.782;10.282;2023-02-26T03:13:55;99035.75;;;11.66
26158;BMP280;67284;44.782;10.282;2023-02-26T03:19:04;99036.69;;;11.63
26158;BMP280;67284;44.782;10.282;2023-02-26T03:29:44;99043.66;;;11.61
26158;BMP280;67284;44.782;10.282;2023-02-26T03:34:45;99051.38;;;11.61
26158;BMP280;67284;44.782;10.282;2023-02-26T03:40:08;99053.00;;;11.64
26158;BMP280;67284;44.782;10.282;2023-02-26T03:45:13;99058.16;;;11.64
26158;BMP280;67284;44.782;10.282;2023-02-26T03:50:16;99082.63;;;11.52
26158;BMP280;67284;44.782;10.282;2023-02-26T03:55:26;99104.44;;;11.42
26158;BMP280;67284;44.782;10.282;2023-02-26T04:00:26;99133.13;;;11.34
26158;BMP280;67284;44.782;10.282;2023-02-26T04:05:23;99173.78;;;11.01
26158;BMP280;67284;44.782;10.282;2023-02-26T04:10:21;99151.72;;;10.46
26158;BMP280;67284;44.782;10.282;2023-02-26T04:15:15;99146.66;;;10.19
26158;BMP280;67284;44.782;10.282;2023-02-26T04:20:08;99150.97;;;9.91
26158;BMP280;67284;44.782;10.282;2023-02-26T04:25:03;99152.41;;;9.72
26158;BMP280;67284;44.782;10.282;2023-02-26T04:29:55;99173.47;;;9.56
26158;BMP280;67284;44.782;10.282;2023-02-26T04:34:48;99172.88;;;9.46
26158;BMP280;67284;44.782;10.282;2023-02-26T04:39:42;99197.03;;;9.39
26158;BMP280;67284;44.782;10.282;2023-02-26T04:44:35;99223.13;;;9.25
26158;BMP280;67284;44.782;10.282;2023-02-26T04:49:27;99242.38;;;9.09
26158;BMP280;67284;44.782;10.282;2023-02-26T04:54:19;99242.44;;;9.07
26158;BMP280;67284;44.782;10.282;2023-02-26T04:59:11;99268.22;;;9.03
26158;BMP280;67284;44.782;10.282;2023-02-26T05:04:04;99281.16;;;8.98
26158;BMP280;67284;44.782;10.282;2023-02-26T05:08:56;99289.56;;;9.03
26158;BMP280;67284;44.782;10.282;2023-02-26T05:13:48;99296.22;;;9.10
26158;BMP280;67284;44.782;10.282;2023-02-26T05:18:40;99290.34;;;9.07
26158;BMP280;67284;44.782;10.282;2023-02-26T05:23:32;99299.69;;;9.08
26158;BMP280;67284;44.782;10.282;2023-02-26T05:28:25;99321.06;;;9.10
26158;BMP280;67284;44.782;10.282;2023-02-26T05:33:17;99316.03;;;9.04
26158;BMP280;67284;44.782;10.282;2023-02-26T05:38:09;99325.31;;;9.09
26158;BMP280;67284;44.782;10.282;2023-02-26T05:43:01;99335.06;;;8.95
26158;BMP280;67284;44.782;10.282;2023-02-26T05:47:53;99347.72;;;9.03
26158;BMP280;67284;44.782;10.282;2023-02-26T05:52:45;99369.78;;;9.10
26158;BMP280;67284;44.782;10.282;2023-02-26T05:57:37;99372.53;;;9.02
26158;BMP280;67284;44.782;10.282;2023-02-26T06:02:29;99383.72;;;9.00
26158;BMP280;67284;44.782;10.282;2023-02-26T06:07:21;99408.72;;;8.92
26158;BMP280;67284;44.782;10.282;2023-02-26T06:12:12;99430.06;;;8.92
26158;BMP280;67284;44.782;10.282;2023-02-26T06:17:05;99455.09;;;8.83
26158;BMP280;67284;44.782;10.282;2023-02-26T06:21:57;99470.66;;;8.74
26158;BMP280;67284;44.782;10.282;2023-02-26T06:26:49;99462.88;;;8.79
26158;BMP280;67284;44.782;10.282;2023-02-26T06:31:41;99482.25;;;8.52
26158;BMP280;67284;44.782;10.282;2023-02-26T06:36:33;99478.84;;;8.52
26158;BMP280;67284;44.782;10.282;2023-02-26T06:41:25;99510.34;;;8.58
26158;BMP280;67284;44.782;10.282;2023-02-26T06:46:17;99509.44;;;8.61
26158;BMP280;67284;44.782;10.282;2023-02-26T06:51:09;99516.22;;;8.62
26158;BMP280;67284;44.782;10.282;2023-02-26T06:56:00;99526.72;;;8.51
26158;BMP280;67284;44.782;10.282;2023-02-26T07:00:53;99522.56;;;8.44
26158;BMP280;67284;44.782;10.282;2023-02-26T07:05:45;99544.81;;;8.42
26158;BMP280;67284;44.782;10.282;2023-02-26T07:10:37;99557.56;;;8.47
26158;BMP280;67284;44.782;10.282;2023-02-26T07:15:29;99580.03;;;8.33
26158;BMP280;67284;44.782;10.282;2023-02-26T07:20:21;99580.88;;;8.33
26158;BMP280;67284;44.782;10.282;2023-02-26T07:25:13;99574.81;;;8.37
26158;BMP280;67284;44.782;10.282;2023-02-26T07:30:06;99574.06;;;8.32
26158;BMP280;67284;44.782;10.282;2023-02-26T07:34:58;99587.63;;;8.37
26158;BMP280;67284;44.782;10.282;2023-02-26T07:39:54;99605.56;;;8.37
26158;BMP280;67284;44.782;10.282;2023-02-26T07:44:46;99608.94;;;8.39
26158;BMP280;67284;44.782;10.282;2023-02-26T07:49:39;99616.56;;;8.42
26158;BMP280;67284;44.782;10.282;2023-02-26T07:54:30;99631.31;;;8.33
26158;BMP280;67284;44.782;10.282;2023-02-26T07:59:22;99646.47;;;8.43
26158;BMP280;67284;44.782;10.282;2023-02-26T08:04:14;99634.53;;;8.42
26158;BMP280;67284;44.782;10.282;2023-02-26T08:09:06;99628.66;;;8.37
26158;BMP280;67284;44.782;10.282;2023-02-26T08:13:58;99642.22;;;8.42
26158;BMP280;67284;44.782;10.282;2023-02-26T08:18:50;99638.91;;;8.37
26158;BMP280;67284;44.782;10.282;2023-02-26T08:23:42;99648.53;;;8.24
26158;BMP280;67284;44.782;10.282;2023-02-26T08:28:34;99664.69;;;8.29
26158;BMP280;67284;44.782;10.282;2023-02-26T08:33:26;99669.69;;;8.36
26158;BMP280;67284;44.782;10.282;2023-02-26T08:38:19;99686.88;;;8.29
26158;BMP280;67284;44.782;10.282;2023-02-26T08:43:11;99688.47;;;8.36
26158;BMP280;67284;44.782;10.282;2023-02-26T08:48:03;99692.69;;;8.39
26158;BMP280;67284;44.782;10.282;2023-02-26T08:52:55;99715.00;;;8.35
26158;BMP280;67284;44.782;10.282;2023-02-26T08:57:47;99714.31;;;8.23
26158;BMP280;67284;44.782;10.282;2023-02-26T09:02:39;99694.78;;;8.16
26158;BMP280;67284;44.782;10.282;2023-02-26T09:07:31;99698.28;;;8.12
26158;BMP280;67284;44.782;10.282;2023-02-26T09:12:23;99693.06;;;8.17
26158;BMP280;67284;44.782;10.282;2023-02-26T09:17:15;99705.97;;;8.09
26158;BMP280;67284;44.782;10.282;2023-02-26T09:22:06;99707.97;;;7.91
26158;BMP280;67284;44.782;10.282;2023-02-26T09:26:58;99703.69;;;7.90
26158;BMP280;67284;44.782;10.282;2023-02-26T09:31:51;99727.00;;;7.72
26158;BMP280;67284;44.782;10.282;2023-02-26T09:36:43;99731.34;;;7.67
26158;BMP280;67284;44.782;10.282;2023-02-26T09:41:41;99725.38;;;7.65
26158;BMP280;67284;44.782;10.282;2023-02-26T09:51:57;99750.84;;;7.77
26158;BMP280;67284;44.782;10.282;2023-02-26T09:56:52;99748.16;;;7.84
26158;BMP280;67284;44.782;10.282;2023-02-26T10:02:13;99757.34;;;7.99
26158;BMP280;67284;44.782;10.282;2023-02-26T10:07:29;99753.13;;;7.95
26158;BMP280;67284;44.782;10.282;2023-02-26T10:12:26;99763.38;;;7.96
26158;BMP280;67284;44.782;10.282;2023-02-26T10:17:34;99759.16;;;7.94
26158;BMP280;67284;44.782;10.282;2023-02-26T10:27:54;99765.28;;;7.79
26158;BMP280;67284;44.782;10.282;2023-02-26T10:33:05;99779.81;;;7.79
26158;BMP280;67284;44.782;10.282;2023-02-26T10:38:01;99783.28;;;7.75
26158;BMP280;67284;44.782;10.282;2023-02-26T10:53:01;99770.25;;;7.93
26158;BMP280;67284;44.782;10.282;2023-02-26T11:02:57;99798.19;;;8.11
26158;BMP280;67284;44.782;10.282;2023-02-26T11:07:54;99796.38;;;8.19
26158;BMP280;67284;44.782;10.282;2023-02-26T11:12:46;99806.63;;;8.19
26158;BMP280;67284;44.782;10.282;2023-02-26T11:17:38;99816.88;;;8.17
26158;BMP280;67284;44.782;10.282;2023-02-26T11:22:32;99793.84;;;8.16
26158;BMP280;67284;44.782;10.282;2023-02-26T11:27:30;99798.22;;;8.09
26158;BMP280;67284;44.782;10.282;2023-02-26T11:32:30;99800.75;;;8.09
26158;BMP280;67284;44.782;10.282;2023-02-26T11:37:27;99805.88;;;8.12
26158;BMP280;67284;44.782;10.282;2023-02-26T11:42:20;99799.00;;;8.11
26158;BMP280;67284;44.782;10.282;2023-02-26T11:47:16;99798.28;;;8.05
26158;BMP280;67284;44.782;10.282;2023-02-26T11:57:02;99804.22;;;8.05
26158;BMP280;67284;44.782;10.282;2023-02-26T12:02:01;99797.41;;;8.04
26158;BMP280;67284;44.782;10.282;2023-02-26T12:06:54;99794.81;;;8.06
26158;BMP280;67284;44.782;10.282;2023-02-26T12:37:36;99811.94;;;8.04
26158;BMP280;67284;44.782;10.282;2023-02-26T12:52:35;99817.03;;;8.07
26158;BMP280;67284;44.782;10.282;2023-02-26T12:57:45;99814.41;;;8.10
26158;BMP280;67284;44.782;10.282;2023-02-26T13:23:24;99829.81;;;8.08
26158;BMP280;67284;44.782;10.282;2023-02-26T13:33:19;99846.88;;;8.12
26158;BMP280;67284;44.782;10.282;2023-02-26T13:38:20;99845.94;;;8.18
26158;BMP280;67284;44.782;10.282;2023-02-26T13:53:41;99883.63;;;8.07
26158;BMP280;67284;44.782;10.282;2023-02-26T13:58:39;99889.63;;;8.04
26158;BMP280;67284;44.782;10.282;2023-02-26T14:03:51;99888.72;;;8.08
26158;BMP280;67284;44.782;10.282;2023-02-26T14:08:45;99904.16;;;8.04
26158;BMP280;67284;44.782;10.282;2023-02-26T14:13:40;99915.28;;;8.01
26158;BMP280;67284;44.782;10.282;2023-02-26T14:23:35;99929.78;;;8.04
26158;BMP280;67284;44.782;10.282;2023-02-26T14:33:31;99933.25;;;8.00
26158;BMP280;67284;44.782;10.282;2023-02-26T14:38:32;99923.06;;;7.94
26158;BMP280;67284;44.782;10.282;2023-02-26T14:43:39;99945.25;;;7.95
26158;BMP280;67284;44.782;10.282;2023-02-26T14:48:32;99938.56;;;7.82
26158;BMP280;67284;44.782;10.282;2023-02-26T14:53:46;99963.22;;;7.92
26158;BMP280;67284;44.782;10.282;2023-02-26T15:04:10;99977.72;;;7.93
26158;BMP280;67284;44.782;10.282;2023-02-26T15:24:40;100011.84;;;7.98
26158;BMP280;67284;44.782;10.282;2023-02-26T15:29:35;100024.66;;;7.98
26158;BMP280;67284;44.782;10.282;2023-02-26T15:34:28;100020.41;;;7.95
26158;BMP280;67284;44.782;10.282;2023-02-26T15:39:22;100030.75;;;7.82
26158;BMP280;67284;44.782;10.282;2023-02-26T15:44:29;100041.06;;;7.76
26158;BMP280;67284;44.782;10.282;2023-02-26T15:49:27;100048.72;;;7.77
26158;BMP280;67284;44.782;10.282;2023-02-26T15:54:21;100072.72;;;7.68
26158;BMP280;67284;44.782;10.282;2023-02-26T15:59:21;100088.91;;;7.68
26158;BMP280;67284;44.782;10.282;2023-02-26T16:04:17;100087.25;;;7.63
26158;BMP280;67284;44.782;10.282;2023-02-26T16:09:25;100076.19;;;7.61
26158;BMP280;67284;44.782;10.282;2023-02-26T16:14:21;100102.66;;;7.58
26158;BMP280;67284;44.782;10.282;2023-02-26T16:19:37;100098.44;;;7.57
26158;BMP280;67284;44.782;10.282;2023-02-26T16:24:32;100105.28;;;7.51
26158;BMP280;67284;44.782;10.282;2023-02-26T16:29:27;100114.66;;;7.55
26158;BMP280;67284;44.782;10.282;2023-02-26T16:34:31;100140.31;;;7.41
26158;BMP280;67284;44.782;10.282;2023-02-26T16:39:29;100158.25;;;7.37
26158;BMP280;67284;44.782;10.282;2023-02-26T16:49:26;100188.16;;;7.30
26158;BMP280;67284;44.782;10.282;2023-02-26T16:54:24;100192.44;;;7.27
26158;BMP280;67284;44.782;10.282;2023-02-26T16:59:23;100200.09;;;7.31
26158;BMP280;67284;44.782;10.282;2023-02-26T17:04:16;100200.16;;;7.20
26158;BMP280;67284;44.782;10.282;2023-02-26T17:09:36;100207.78;;;7.28
26158;BMP280;67284;44.782;10.282;2023-02-26T17:14:30;100222.28;;;7.29
26158;BMP280;67284;44.782;10.282;2023-02-26T17:19:25;100246.16;;;7.31
26158;BMP280;67284;44.782;10.282;2023-02-26T17:24:21;100241.88;;;7.30
26158;BMP280;67284;44.782;10.282;2023-02-26T17:29:20;100254.69;;;7.27
26158;BMP280;67284;44.782;10.282;2023-02-26T17:34:13;100261.50;;;7.31
26158;BMP280;67284;44.782;10.282;2023-02-26T17:39:06;100255.50;;;7.41
26158;BMP280;67284;44.782;10.282;2023-02-26T17:43:58;100280.22;;;7.48
26158;BMP280;67284;44.782;10.282;2023-02-26T17:48:50;100269.09;;;7.55
26158;BMP280;67284;44.782;10.282;2023-02-26T17:53:41;100292.94;;;7.68
26158;BMP280;67284;44.782;10.282;2023-02-26T17:58:35;100274.16;;;7.64
26158;BMP280;67284;44.782;10.282;2023-02-26T18:03:27;100291.22;;;7.67
26158;BMP280;67284;44.782;10.282;2023-02-26T18:08:20;100293.78;;;7.73
26158;BMP280;67284;44.782;10.282;2023-02-26T18:13:12;100306.53;;;7.83
26158;BMP280;67284;44.782;10.282;2023-02-26T18:18:04;100311.63;;;7.86
26158;BMP280;67284;44.782;10.282;2023-02-26T18:22:57;100311.63;;;7.86
26158;BMP280;67284;44.782;10.282;2023-02-26T18:27:51;100311.63;;;7.84
26158;BMP280;67284;44.782;10.282;2023-02-26T18:32:50;100315.06;;;7.82
26158;BMP280;67284;44.782;10.282;2023-02-26T18:37:43;100311.69;;;7.74
26158;BMP280;67284;44.782;10.282;2023-02-26T18:42:35;100318.53;;;7.69
26158;BMP280;67284;44.782;10.282;2023-02-26T18:47:27;100320.19;;;7.82
26158;BMP280;67284;44.782;10.282;2023-02-26T18:52:19;100324.50;;;7.77
26158;BMP280;67284;44.782;10.282;2023-02-26T18:57:11;100332.16;;;7.78
26158;BMP280;67284;44.782;10.282;2023-02-26T19:02:04;100321.03;;;7.79
26158;BMP280;67284;44.782;10.282;2023-02-26T19:06:57;100320.19;;;7.77
26158;BMP280;67284;44.782;10.282;2023-02-26T19:11:49;100333.00;;;7.77
26158;BMP280;67284;44.782;10.282;2023-02-26T19:16:41;100338.97;;;7.78
26158;BMP280;67284;44.782;10.282;2023-02-26T19:21:35;100337.28;;;7.81
26158;BMP280;67284;44.782;10.282;2023-02-26T19:26:30;100340.63;;;7.86
26158;BMP280;67284;44.782;10.282;2023-02-26T19:31:22;100356.03;;;7.82
26158;BMP280;67284;44.782;10.282;2023-02-26T19:36:15;100368.00;;;7.80
26158;BMP280;67284;44.782;10.282;2023-02-26T19:41:07;100363.75;;;7.79
26158;BMP280;67284;44.782;10.282;2023-02-26T19:45:59;100370.56;;;7.81
26158;BMP280;67284;44.782;10.282;2023-02-26T19:50:53;100389.34;;;7.80
26158;BMP280;67284;44.782;10.282;2023-02-26T19:55:47;100397.03;;;7.80
26158;BMP280;67284;44.782;10.282;2023-02-26T20:00:39;100397.91;;;7.75
26158;BMP280;67284;44.782;10.282;2023-02-26T20:05:31;100414.13;;;7.76
26158;BMP280;67284;44.782;10.282;2023-02-26T20:10:22;100430.31;;;7.85
26158;BMP280;67284;44.782;10.282;2023-02-26T20:15:15;100429.50;;;7.78
26158;BMP280;67284;44.782;10.282;2023-02-26T20:20:08;100437.19;;;7.77
26158;BMP280;67284;44.782;10.282;2023-02-26T20:25:00;100432.06;;;7.65
26158;BMP280;67284;44.782;10.282;2023-02-26T20:29:52;100450.00;;;7.49
26158;BMP280;67284;44.782;10.282;2023-02-26T20:34:43;100441.47;;;7.54
26158;BMP280;67284;44.782;10.282;2023-02-26T20:39:35;100439.78;;;7.55
26158;BMP280;67284;44.782;10.282;2023-02-26T20:44:27;100445.75;;;7.55
26158;BMP280;67284;44.782;10.282;2023-02-26T20:49:20;100452.59;;;7.59
26158;BMP280;67284;44.782;10.282;2023-02-26T20:54:12;100457.72;;;7.56
26158;BMP280;67284;44.782;10.282;2023-02-26T20:59:05;100463.69;;;7.48
26158;BMP280;67284;44.782;10.282;2023-02-26T21:03:58;100473.94;;;7.49
26158;BMP280;67284;44.782;10.282;2023-02-26T21:08:50;100484.16;;;7.55
26158;BMP280;67284;44.782;10.282;2023-02-26T21:13:42;100480.75;;;7.56
26158;BMP280;67284;44.782;10.282;2023-02-26T21:18:36;100486.72;;;7.55
26158;BMP280;67284;44.782;10.282;2023-02-26T21:23:27;100493.56;;;7.53
26158;BMP280;67284;44.782;10.282;2023-02-26T21:28:19;100492.69;;;7.50
26158;BMP280;67284;44.782;10.282;2023-02-26T21:33:11;100505.50;;;7.48
26158;BMP280;67284;44.782;10.282;2023-02-26T21:38:04;100512.34;;;7.49
26158;BMP280;67284;44.782;10.282;2023-02-26T21:42:56;100515.75;;;7.50
26158;BMP280;67284;44.782;10.282;2023-02-26T21:47:47;100515.75;;;7.50
26158;BMP280;67284;44.782;10.282;2023-02-26T21:52:39;100537.94;;;7.43
26158;BMP280;67284;44.782;10.282;2023-02-26T21:57:31;100532.81;;;7.46
26158;BMP280;67284;44.782;10.282;2023-02-26T22:02:23;100538.78;;;7.44
26158;BMP280;67284;44.782;10.282;2023-02-26T22:07:15;100531.13;;;7.36
26158;BMP280;67284;44.782;10.282;2023-02-26T22:12:07;100542.19;;;7.38
26158;BMP280;67284;44.782;10.282;2023-02-26T22:16:59;100543.91;;;7.39
26158;BMP280;67284;44.782;10.282;2023-02-26T22:21:51;100554.16;;;7.42
26158;BMP280;67284;44.782;10.282;2023-02-26T22:26:43;100556.69;;;7.47
26158;BMP280;67284;44.782;10.282;2023-02-26T22:31:35;100551.59;;;7.45
26158;BMP280;67284;44.782;10.282;2023-02-26T22:36:27;100552.47;;;7.50
26158;BMP280;67284;44.782;10.282;2023-02-26T22:41:22;100566.09;;;7.49
26158;BMP280;67284;44.782;10.282;2023-02-26T22:46:14;100566.94;;;7.48
26158;BMP280;67284;44.782;10.282;2023-02-26T22:51:07;100569.50;;;7.54
26158;BMP280;67284;44.782;10.282;2023-02-26T22:55:59;100571.22;;;7.63
26158;BMP280;67284;44.782;10.282;2023-02-26T23:00:59;100567.78;;;7.65
26158;BMP280;67284;44.782;10.282;2023-02-26T23:05:52;100582.31;;;7.60
26158;BMP280;67284;44.782;10.282;2023-02-26T23:10:44;100581.44;;;7.57
26158;BMP280;67284;44.782;10.282;2023-02-26T23:15:36;100582.31;;;7.57
26158;BMP280;67284;44.782;10.282;2023-02-26T23:20:28;100589.13;;;7.58
26158;BMP280;67284;44.782;10.282;2023-02-26T23:25:20;100599.41;;;7.67
26158;BMP280;67284;44.782;10.282;2023-02-26T23:30:12;100607.94;;;7.66
26158;BMP280;67284;44.782;10.282;2023-02-26T23:35:05;100616.44;;;7.67
26158;BMP280;67284;44.782;10.282;2023-02-26T23:39:57;100632.69;;;7.70
26158;BMP280;67284;44.782;10.282;2023-02-26T23:44:49;100624.13;;;7.65
26158;BMP280;67284;44.782;10.282;2023-02-26T23:49:40;100638.66;;;7.69
26158;BMP280;67284;44.782;10.282;2023-02-26T23:54:32;100642.06;;;7.62
26158;BMP280;67284;44.782;10.282;2023-02-26T23:59:24;100646.34;;;7.65
